Time;durP1;ratioP1;P1;durP2;ratioP2;P2;SDS_P1;SDS_P2;PMS_P1;PMS_P2;Temp;Humidity;BMP_temperature;BMP_pressure;BME280_temperature;BME280_humidity;BME280_pressure;Samples;Min_cycle;Max_cycle;Signal;HPM_P1;HPM_P2
2021/12/26 00:00:12;;;;;;;2.35;0.70;;;-5.10;99.90;;;;;;6152891;23;20032;-81
2021/12/26 00:02:38;;;;;;;3.53;0.70;;;-5.10;99.90;;;;;;6152725;23;20024;-81
2021/12/26 00:05:05;;;;;;;1.83;0.47;;;-5.10;99.90;;;;;;6152278;23;20048;-81
2021/12/26 00:07:31;;;;;;;1.85;0.75;;;-5.10;99.90;;;;;;6128084;23;20508;-82
2021/12/26 00:09:57;;;;;;;2.50;0.80;;;-5.10;99.90;;;;;;6150774;23;20474;-81
2021/12/26 00:12:22;;;;;;;4.22;0.80;;;-5.10;99.90;;;;;;6153123;23;20014;-81
2021/12/26 00:14:48;;;;;;;2.35;0.70;;;-5.10;99.90;;;;;;6128805;23;20010;-81
2021/12/26 00:17:14;;;;;;;2.35;0.77;;;-5.10;99.90;;;;;;6130448;23;20013;-81
2021/12/26 00:19:40;;;;;;;2.42;0.90;;;-5.10;99.90;;;;;;6152403;23;20368;-81
2021/12/26 00:22:06;;;;;;;2.17;0.57;;;-5.10;99.90;;;;;;6152822;23;20017;-82
2021/12/26 00:24:32;;;;;;;1.08;0.52;;;-5.20;99.90;;;;;;6150771;23;20477;-81
2021/12/26 00:26:57;;;;;;;1.30;0.50;;;-5.20;99.90;;;;;;6153230;23;20074;-81
2021/12/26 00:29:23;;;;;;;1.30;0.50;;;-5.10;99.90;;;;;;6154014;23;20013;-81
2021/12/26 00:31:48;;;;;;;2.63;0.70;;;-5.10;99.90;;;;;;6129101;23;20009;-82
2021/12/26 00:34:14;;;;;;;2.58;0.85;;;-5.10;99.90;;;;;;6153424;23;20021;-82
2021/12/26 00:36:40;;;;;;;2.72;0.70;;;-5.10;99.90;;;;;;6154431;23;20016;-81
2021/12/26 00:39:06;;;;;;;5.20;0.80;;;-5.10;99.90;;;;;;6151249;23;20069;-82
2021/12/26 00:41:31;;;;;;;4.13;0.60;;;-5.10;99.90;;;;;;6128474;23;20184;-81
2021/12/26 00:43:57;;;;;;;1.80;0.68;;;-5.10;99.90;;;;;;6151398;23;20013;-82
2021/12/26 00:46:23;;;;;;;2.50;0.50;;;-5.10;99.90;;;;;;6128356;23;20036;-82
2021/12/26 00:48:48;;;;;;;2.80;0.50;;;-5.10;99.90;;;;;;6152001;23;20028;-81
2021/12/26 00:51:14;;;;;;;2.50;0.55;;;-5.20;99.90;;;;;;6153012;23;20029;-81
2021/12/26 00:53:40;;;;;;;2.58;0.70;;;-5.20;99.90;;;;;;6126975;23;20106;-82
2021/12/26 00:56:05;;;;;;;1.88;0.85;;;-5.20;99.90;;;;;;6127318;23;20062;-82
2021/12/26 00:58:31;;;;;;;3.22;0.70;;;-5.20;99.90;;;;;;6152911;23;20443;-82
2021/12/26 01:00:57;;;;;;;2.38;0.70;;;-5.20;99.90;;;;;;6153334;23;20053;-81
2021/12/26 01:03:23;;;;;;;3.13;0.70;;;-5.20;99.90;;;;;;6152298;23;20017;-82
2021/12/26 01:05:52;;;;;;;3.20;0.70;;;-5.20;99.90;;;;;;6151752;23;20340;-82
2021/12/26 01:08:24;;;;;;;2.60;0.80;;;-5.20;99.90;;;;;;6152197;23;20016;-81
2021/12/26 01:10:57;;;;;;;2.05;0.73;;;-5.20;99.90;;;;;;6151826;23;20029;-81
2021/12/26 01:13:30;;;;;;;1.75;0.60;;;-5.20;99.90;;;;;;6154302;23;20012;-81
2021/12/26 01:15:59;;;;;;;2.15;0.70;;;-5.20;99.90;;;;;;6152601;23;20009;-82
2021/12/26 01:18:28;;;;;;;2.55;0.85;;;-5.20;99.90;;;;;;6152585;23;20352;-81
2021/12/26 01:21:03;;;;;;;3.10;0.60;;;-5.20;99.90;;;;;;6151379;23;20013;-82
2021/12/26 01:23:29;;;;;;;3.80;0.70;;;-5.20;99.90;;;;;;6152229;23;20018;-82
2021/12/26 01:25:56;;;;;;;2.88;0.73;;;-5.20;99.90;;;;;;6150862;23;20021;-82
2021/12/26 01:28:23;;;;;;;1.50;0.50;;;-5.20;99.90;;;;;;6152293;23;20056;-83
2021/12/26 01:30:50;;;;;;;2.35;0.68;;;-5.20;99.90;;;;;;6151618;23;20063;-82
2021/12/26 01:33:18;;;;;;;3.17;0.80;;;-5.20;99.90;;;;;;6152797;23;20048;-82
2021/12/26 01:35:44;;;;;;;3.63;0.77;;;-5.10;99.90;;;;;;6127365;23;20085;-81
2021/12/26 01:38:13;;;;;;;3.40;0.75;;;-5.20;99.90;;;;;;6152743;23;20013;-82
2021/12/26 01:40:47;;;;;;;5.18;0.70;;;-5.20;99.90;;;;;;6125276;23;20032;-82
2021/12/26 01:43:15;;;;;;;3.50;0.60;;;-5.20;99.90;;;;;;6128272;23;20017;-82
2021/12/26 01:45:44;;;;;;;2.10;0.60;;;-5.20;99.90;;;;;;6128939;23;20017;-82
2021/12/26 01:48:09;;;;;;;2.05;0.63;;;-5.20;99.90;;;;;;6151975;23;20041;-82
2021/12/26 01:50:36;;;;;;;1.10;0.47;;;-5.20;99.90;;;;;;6126535;23;20029;-82
2021/12/26 01:53:05;;;;;;;5.00;0.60;;;-5.20;99.90;;;;;;6126637;23;20021;-82
2021/12/26 01:55:42;;;;;;;2.38;0.75;;;-5.20;99.90;;;;;;6125257;23;20020;-82
2021/12/26 01:58:14;;;;;;;4.03;1.02;;;-5.20;99.90;;;;;;6127082;23;20393;-82
2021/12/26 02:00:43;;;;;;;2.78;0.73;;;-5.20;99.90;;;;;;6152289;23;20456;-82
2021/12/26 02:03:09;;;;;;;2.38;0.70;;;-5.20;99.90;;;;;;6151823;23;20041;-82
2021/12/26 02:05:36;;;;;;;2.67;0.60;;;-5.20;99.90;;;;;;6150890;23;20021;-82
2021/12/26 02:08:03;;;;;;;1.63;0.52;;;-5.20;99.90;;;;;;6152689;23;20044;-82
2021/12/26 02:10:29;;;;;;;1.98;0.43;;;-5.20;99.90;;;;;;6124992;23;20017;-82
2021/12/26 02:12:54;;;;;;;2.30;0.70;;;-5.20;99.90;;;;;;6149184;23;20397;-82
2021/12/26 02:15:20;;;;;;;4.65;0.95;;;-5.20;99.90;;;;;;6148835;23;20052;-82
2021/12/26 02:17:46;;;;;;;3.03;0.60;;;-5.20;99.90;;;;;;6125796;23;20387;-82
2021/12/26 02:20:21;;;;;;;2.03;0.60;;;-5.20;99.90;;;;;;6149322;23;20450;-82
2021/12/26 02:22:54;;;;;;;2.83;0.65;;;-5.20;99.90;;;;;;6150445;23;20029;-82
2021/12/26 02:25:32;;;;;;;4.00;0.68;;;-5.10;99.90;;;;;;6148490;23;20601;-82
2021/12/26 02:27:59;;;;;;;2.42;0.68;;;-5.10;99.90;;;;;;6149826;23;20045;-82
2021/12/26 02:30:25;;;;;;;1.58;0.70;;;-5.10;99.90;;;;;;6125846;23;20065;-82
2021/12/26 02:32:52;;;;;;;3.25;0.70;;;-5.10;99.90;;;;;;6150425;23;20589;-82
2021/12/26 02:35:20;;;;;;;2.90;0.70;;;-5.10;99.40;;;;;;6149300;23;20032;-82
2021/12/26 02:37:46;;;;;;;2.17;0.75;;;-5.10;98.90;;;;;;6150644;23;20466;-82
2021/12/26 02:40:14;;;;;;;1.92;0.60;;;-5.10;99.30;;;;;;6147931;23;20021;-81
2021/12/26 02:42:40;;;;;;;1.90;0.68;;;-5.10;98.40;;;;;;6149072;23;20800;-82
2021/12/26 02:45:06;;;;;;;3.45;1.10;;;-5.10;99.10;;;;;;6151856;23;20088;-82
2021/12/26 02:47:35;;;;;;;2.53;0.57;;;-5.10;98.90;;;;;;6128369;23;20046;-82
2021/12/26 02:50:07;;;;;;;2.92;0.90;;;-5.10;98.20;;;;;;6152509;23;20745;-81
2021/12/26 02:52:33;;;;;;;;;;;-5.10;97.10;;;;;;6154334;23;20014;-82
2021/12/26 02:55:01;;;;;;;2.45;0.82;;;-5.10;97.30;;;;;;6153518;23;20432;-82
2021/12/26 02:57:27;;;;;;;1.92;0.55;;;-5.10;97.70;;;;;;6152942;23;20077;-82
2021/12/26 02:59:53;;;;;;;2.17;0.70;;;-5.10;97.60;;;;;;6154277;23;20014;-82
2021/12/26 03:02:18;;;;;;;2.33;0.70;;;-5.10;97.20;;;;;;6153208;23;20013;-82
2021/12/26 03:04:44;;;;;;;1.52;0.50;;;-5.10;97.10;;;;;;6151572;23;20348;-82
2021/12/26 03:07:10;;;;;;;4.57;0.82;;;-5.10;96.50;;;;;;6152010;23;20032;-82
2021/12/26 03:09:45;;;;;;;3.58;0.98;;;-5.10;96.70;;;;;;6126574;23;20013;-81
2021/12/26 03:12:11;;;;;;;2.30;0.82;;;-5.10;96.60;;;;;;6152118;23;20018;-81
2021/12/26 03:14:38;;;;;;;2.13;0.70;;;-5.10;96.80;;;;;;6152279;23;20108;-82
2021/12/26 03:17:05;;;;;;;3.03;0.50;;;-5.10;97.30;;;;;;6152724;23;20050;-82
2021/12/26 03:19:32;;;;;;;1.55;0.50;;;-5.10;97.90;;;;;;6127831;23;20068;-82
2021/12/26 03:21:57;;;;;;;2.45;0.82;;;-5.10;96.20;;;;;;6128959;23;20025;-82
2021/12/26 03:24:23;;;;;;;2.30;0.50;;;-5.00;96.20;;;;;;6151237;23;20348;-81
2021/12/26 03:26:49;;;;;;;2.38;0.60;;;-5.00;95.50;;;;;;6152242;23;20443;-82
2021/12/26 03:29:14;;;;;;;2.13;0.63;;;-5.00;96.00;;;;;;6128291;23;20013;-82
2021/12/26 03:31:41;;;;;;;1.48;0.60;;;-5.00;95.50;;;;;;6128087;23;20368;-82
2021/12/26 03:34:08;;;;;;;2.45;0.70;;;-5.10;95.00;;;;;;6151697;23;20017;-82
2021/12/26 03:36:34;;;;;;;1.63;0.70;;;-5.00;95.40;;;;;;6152168;23;20024;-82
2021/12/26 03:39:00;;;;;;;2.47;0.80;;;-5.00;94.70;;;;;;6150706;23;20009;-81
2021/12/26 03:41:26;;;;;;;1.77;0.75;;;-5.00;93.70;;;;;;6127627;23;20088;-81
2021/12/26 03:43:51;;;;;;;2.60;0.70;;;-5.00;94.30;;;;;;6152177;23;20048;-82
2021/12/26 03:46:17;;;;;;;2.45;0.75;;;-5.00;93.20;;;;;;6127979;23;20025;-82
2021/12/26 03:48:43;;;;;;;2.30;0.60;;;-5.00;93.70;;;;;;6152169;23;20018;-81
2021/12/26 03:51:09;;;;;;;2.83;0.80;;;-4.90;92.70;;;;;;6151795;23;20100;-81
2021/12/26 03:53:35;;;;;;;3.10;0.68;;;-5.00;92.20;;;;;;6151203;23;20009;-81
2021/12/26 03:56:01;;;;;;;1.70;0.70;;;-4.90;92.40;;;;;;6151369;23;20052;-82
2021/12/26 03:58:27;;;;;;;1.85;0.65;;;-5.00;92.20;;;;;;6151815;23;20017;-81
2021/12/26 04:00:53;;;;;;;2.63;0.77;;;-4.90;92.80;;;;;;6153033;23;20057;-82
2021/12/26 04:03:20;;;;;;;2.72;0.60;;;-4.90;92.30;;;;;;6126975;23;20017;-81
2021/12/26 04:05:46;;;;;;;3.88;0.80;;;-4.90;91.70;;;;;;6151409;23;20021;-82
2021/12/26 04:08:12;;;;;;;2.47;0.68;;;-4.90;91.20;;;;;;6152534;23;20339;-81
2021/12/26 04:10:38;;;;;;;2.25;0.50;;;-4.90;91.90;;;;;;6151464;23;20017;-81
2021/12/26 04:13:04;;;;;;;4.85;0.93;;;-4.90;91.70;;;;;;6152643;23;20032;-81
2021/12/26 04:15:30;;;;;;;3.20;0.80;;;-4.90;90.80;;;;;;6152276;23;20001;-81
2021/12/26 04:17:57;;;;;;;3.40;0.70;;;-4.90;91.30;;;;;;6152392;23;20385;-81
2021/12/26 04:20:24;;;;;;;2.85;0.75;;;-4.90;91.30;;;;;;6153013;23;20683;-82
2021/12/26 04:22:51;;;;;;;2.15;0.50;;;-4.90;91.20;;;;;;6151760;23;20474;-82
2021/12/26 04:25:18;;;;;;;2.13;0.60;;;-4.90;91.40;;;;;;6151339;23;20055;-82
2021/12/26 04:27:43;;;;;;;1.90;0.70;;;-4.90;91.90;;;;;;6152740;23;20052;-82
2021/12/26 04:30:12;;;;;;;1.40;0.50;;;-4.90;91.40;;;;;;6153708;23;20020;-82
2021/12/26 04:32:38;;;;;;;3.67;1.00;;;-5.00;91.80;;;;;;6152987;23;20758;-83
2021/12/26 04:35:05;;;;;;;2.67;0.82;;;-5.00;91.80;;;;;;6151958;23;20031;-82
2021/12/26 04:37:31;;;;;;;2.33;0.70;;;-5.00;92.20;;;;;;6130225;23;20408;-83
2021/12/26 04:39:57;;;;;;;1.95;0.60;;;-5.00;92.40;;;;;;6151698;23;20067;-83
2021/12/26 04:42:23;;;;;;;2.78;0.90;;;-5.10;92.00;;;;;;6153434;23;20113;-83
2021/12/26 04:44:50;;;;;;;2.20;0.60;;;-5.10;92.30;;;;;;6127978;23;20032;-83
2021/12/26 04:47:16;;;;;;;1.50;0.57;;;-5.10;92.10;;;;;;6126635;23;20029;-83
2021/12/26 04:49:42;;;;;;;2.40;0.75;;;-5.10;92.30;;;;;;6128482;23;20033;-83
2021/12/26 04:52:07;;;;;;;2.47;1.00;;;-5.20;93.00;;;;;;6129176;23;20076;-83
2021/12/26 04:54:33;;;;;;;3.97;0.95;;;-5.10;93.00;;;;;;6151734;23;19998;-82
2021/12/26 04:56:59;;;;;;;3.03;0.90;;;-5.20;93.40;;;;;;6152899;23;20425;-83
2021/12/26 04:59:26;;;;;;;2.50;0.90;;;-5.20;93.20;;;;;;6128383;23;20013;-82
2021/12/26 05:01:53;;;;;;;2.28;0.77;;;-5.20;93.40;;;;;;6152268;23;20339;-83
2021/12/26 05:04:19;;;;;;;2.40;0.90;;;-5.20;93.40;;;;;;6127754;23;20013;-83
2021/12/26 05:06:47;;;;;;;2.35;0.95;;;-5.20;93.00;;;;;;6128847;23;20076;-83
2021/12/26 05:09:14;;;;;;;3.50;0.90;;;-5.20;93.40;;;;;;6150893;23;20017;-83
2021/12/26 05:11:40;;;;;;;2.63;0.90;;;-5.20;93.50;;;;;;6128720;23;20484;-83
2021/12/26 05:14:06;;;;;;;2.38;0.93;;;-5.30;93.60;;;;;;6153226;23;20029;-83
2021/12/26 05:16:32;;;;;;;2.83;0.90;;;-5.20;93.70;;;;;;6128694;23;20336;-83
2021/12/26 05:18:58;;;;;;;2.15;1.00;;;-5.30;94.10;;;;;;6152625;23;20634;-84
2021/12/26 05:21:23;;;;;;;2.30;0.80;;;-5.30;93.90;;;;;;6151661;23;20020;-82
2021/12/26 05:23:49;;;;;;;3.97;1.60;;;-5.30;93.50;;;;;;6151451;23;20009;-82
2021/12/26 05:26:15;;;;;;;3.33;0.80;;;-5.30;94.20;;;;;;6152501;23;20009;-82
2021/12/26 05:28:40;;;;;;;3.60;1.02;;;-5.30;94.50;;;;;;6128234;23;20013;-82
2021/12/26 05:31:06;;;;;;;4.45;1.13;;;-5.30;94.70;;;;;;6152609;23;20084;-83
2021/12/26 05:33:32;;;;;;;3.63;0.90;;;-5.30;94.60;;;;;;6152421;23;20045;-82
2021/12/26 05:35:59;;;;;;;2.35;0.77;;;-5.30;94.70;;;;;;6151702;23;20049;-83
2021/12/26 05:38:28;;;;;;;2.63;1.00;;;-5.30;94.90;;;;;;6151363;23;20023;-82
2021/12/26 05:40:54;;;;;;;3.22;1.00;;;-5.30;94.60;;;;;;6150275;23;20021;-82
2021/12/26 05:43:20;;;;;;;2.83;1.15;;;-5.30;94.60;;;;;;6151929;23;20033;-83
2021/12/26 05:45:46;;;;;;;3.92;0.98;;;-5.30;94.40;;;;;;6152873;23;20013;-82
2021/12/26 05:48:11;;;;;;;2.95;1.17;;;-5.30;94.70;;;;;;6152150;23;20131;-82
2021/12/26 05:50:37;;;;;;;2.90;1.10;;;-5.30;94.80;;;;;;6126570;23;20088;-82
2021/12/26 05:53:03;;;;;;;4.43;1.02;;;-5.30;94.50;;;;;;6127867;23;20017;-82
2021/12/26 05:55:28;;;;;;;2.97;1.00;;;-5.30;93.50;;;;;;6126506;23;20014;-82
2021/12/26 05:57:54;;;;;;;3.05;1.00;;;-5.20;93.90;;;;;;6127546;23;20064;-82
2021/12/26 06:00:21;;;;;;;2.42;0.95;;;-5.20;93.90;;;;;;6151394;23;20076;-82
2021/12/26 06:02:50;;;;;;;3.28;1.27;;;-5.20;93.40;;;;;;6152441;23;20424;-82
2021/12/26 06:05:17;;;;;;;3.17;1.20;;;-5.20;92.80;;;;;;6151933;23;20105;-82
2021/12/26 06:07:43;;;;;;;3.28;1.10;;;-5.20;92.80;;;;;;6151521;23;20033;-82
2021/12/26 06:10:08;;;;;;;4.10;1.00;;;-5.20;92.80;;;;;;6151329;23;20021;-82
2021/12/26 06:12:35;;;;;;;2.70;1.02;;;-5.20;93.00;;;;;;6128162;23;20037;-82
2021/12/26 06:15:00;;;;;;;3.00;1.27;;;-5.20;93.40;;;;;;6151643;23;20347;-82
2021/12/26 06:17:26;;;;;;;2.65;1.00;;;-5.20;92.70;;;;;;6152134;23;20103;-82
2021/12/26 06:19:52;;;;;;;3.15;1.23;;;-5.20;93.10;;;;;;6127441;23;20109;-82
2021/12/26 06:22:17;;;;;;;3.15;1.35;;;-5.20;92.80;;;;;;6154306;23;20447;-82
2021/12/26 06:24:43;;;;;;;2.95;1.30;;;-5.20;92.80;;;;;;6127846;23;20060;-82
2021/12/26 06:27:09;;;;;;;4.13;1.42;;;-5.20;93.20;;;;;;6154038;23;20017;-82
2021/12/26 06:29:35;;;;;;;2.55;0.90;;;-5.20;93.60;;;;;;6153337;23;20021;-82
2021/12/26 06:32:01;;;;;;;3.97;0.98;;;-5.20;93.80;;;;;;6129388;23;20024;-82
2021/12/26 06:34:27;;;;;;;5.35;1.40;;;-5.20;93.80;;;;;;6128204;23;20344;-82
2021/12/26 06:36:52;;;;;;;2.65;1.17;;;-5.20;93.90;;;;;;6129071;23;20025;-82
2021/12/26 06:39:19;;;;;;;2.80;1.00;;;-5.20;93.60;;;;;;6152427;23;20081;-82
2021/12/26 06:41:45;;;;;;;4.18;1.20;;;-5.20;94.20;;;;;;6129187;23;20075;-82
2021/12/26 06:44:10;;;;;;;3.85;1.30;;;-5.20;93.90;;;;;;6128515;23;20464;-82
2021/12/26 06:46:36;;;;;;;3.58;1.20;;;-5.30;94.10;;;;;;6128835;23;21367;-82
2021/12/26 06:49:03;;;;;;;2.78;1.02;;;-5.30;93.90;;;;;;6154410;23;20424;-82
2021/12/26 06:51:29;;;;;;;3.28;1.00;;;-5.30;94.20;;;;;;6128769;23;20625;-82
2021/12/26 06:53:55;;;;;;;3.60;0.88;;;-5.30;93.80;;;;;;6124889;23;20009;-82
2021/12/26 06:56:20;;;;;;;3.30;0.90;;;-5.30;94.50;;;;;;6150911;23;20017;-82
2021/12/26 06:58:46;;;;;;;3.75;1.20;;;-5.30;94.30;;;;;;6152012;23;20093;-82
2021/12/26 07:01:11;;;;;;;3.28;1.05;;;-5.30;94.10;;;;;;6127193;23;20044;-82
2021/12/26 07:03:37;;;;;;;2.28;1.05;;;-5.30;94.30;;;;;;6151586;23;20452;-82
2021/12/26 07:06:03;;;;;;;5.18;1.23;;;-5.30;94.40;;;;;;6127000;23;20029;-82
2021/12/26 07:08:28;;;;;;;3.92;1.17;;;-5.30;93.90;;;;;;6151439;23;20043;-82
2021/12/26 07:10:54;;;;;;;3.47;1.30;;;-5.30;94.30;;;;;;6150374;23;20013;-82
2021/12/26 07:13:20;;;;;;;3.50;1.33;;;-5.30;94.80;;;;;;6151097;23;20020;-82
2021/12/26 07:15:45;;;;;;;2.63;1.10;;;-5.30;94.90;;;;;;6151257;23;20088;-82
2021/12/26 07:18:11;;;;;;;4.30;1.48;;;-5.30;94.80;;;;;;6151208;23;20093;-82
2021/12/26 07:20:37;;;;;;;3.03;1.38;;;-5.30;95.10;;;;;;6126867;23;20048;-82
2021/12/26 07:23:04;;;;;;;5.18;1.20;;;-5.30;94.70;;;;;;6151197;23;20017;-82
2021/12/26 07:25:30;;;;;;;3.78;1.40;;;-5.30;95.10;;;;;;6123955;23;20384;-82
2021/12/26 07:27:56;;;;;;;2.90;1.00;;;-5.30;95.10;;;;;;6150717;23;20121;-82
2021/12/26 07:30:22;;;;;;;3.50;1.42;;;-5.30;95.20;;;;;;6125359;23;20028;-82
2021/12/26 07:32:48;;;;;;;3.20;1.00;;;-5.30;95.20;;;;;;6126313;23;20092;-82
2021/12/26 07:35:13;;;;;;;4.07;1.15;;;-5.40;95.20;;;;;;6150971;23;20005;-82
2021/12/26 07:37:39;;;;;;;3.50;1.20;;;-5.30;95.50;;;;;;6151198;23;20052;-82
2021/12/26 07:40:06;;;;;;;5.22;1.40;;;-5.30;95.40;;;;;;6124196;23;20055;-82
2021/12/26 07:42:32;;;;;;;4.22;1.50;;;-5.30;95.30;;;;;;6151367;23;20053;-82
2021/12/26 07:44:57;;;;;;;2.58;1.10;;;-5.30;95.40;;;;;;6151040;23;20060;-82
2021/12/26 07:47:23;;;;;;;2.67;0.85;;;-5.30;95.70;;;;;;6150802;23;20062;-82
2021/12/26 07:49:49;;;;;;;3.20;1.15;;;-5.30;95.70;;;;;;6148975;23;20051;-82
2021/12/26 07:52:22;;;;;;;5.05;1.27;;;-5.30;95.30;;;;;;6150980;23;20092;-82
2021/12/26 07:54:48;;;;;;;3.55;1.50;;;-5.30;95.30;;;;;;6148643;23;20010;-82
2021/12/26 07:57:15;;;;;;;3.63;1.10;;;-5.30;95.60;;;;;;6151717;23;20258;-82
2021/12/26 07:59:41;;;;;;;3.05;1.08;;;-5.30;95.80;;;;;;6151153;23;20064;-82
2021/12/26 08:02:07;;;;;;;4.85;1.45;;;-5.30;95.80;;;;;;6151153;23;20041;-82
2021/12/26 08:04:32;;;;;;;3.05;1.00;;;-5.30;95.70;;;;;;6126933;23;20068;-82
2021/12/26 08:06:59;;;;;;;4.07;1.58;;;-5.30;95.60;;;;;;6152601;23;20376;-83
2021/12/26 08:09:24;;;;;;;4.45;1.30;;;-5.30;95.90;;;;;;6149911;23;20470;-82
2021/12/26 08:11:51;;;;;;;3.47;1.38;;;-5.20;95.50;;;;;;6151377;23;20021;-82
2021/12/26 08:14:17;;;;;;;4.65;1.60;;;-5.30;95.80;;;;;;6150729;23;20094;-82
2021/12/26 08:16:43;;;;;;;3.60;1.23;;;-5.20;96.10;;;;;;6126105;23;20412;-82
2021/12/26 08:19:08;;;;;;;4.00;1.30;;;-5.20;96.40;;;;;;6151560;23;20096;-82
2021/12/26 08:21:34;;;;;;;3.75;1.42;;;-5.20;95.80;;;;;;6151173;23;20005;-82
2021/12/26 08:24:01;;;;;;;4.50;1.45;;;-5.20;96.00;;;;;;6125544;23;20444;-82
2021/12/26 08:26:27;;;;;;;4.03;1.42;;;-5.10;95.60;;;;;;6150662;23;20329;-82
2021/12/26 08:28:53;;;;;;;3.85;1.60;;;-5.10;95.40;;;;;;6125260;23;20120;-82
2021/12/26 08:31:20;;;;;;;4.65;1.63;;;-5.10;95.50;;;;;;6126283;23;20017;-82
2021/12/26 08:33:46;;;;;;;3.50;1.25;;;-5.10;95.80;;;;;;6150606;23;20032;-82
2021/12/26 08:36:12;;;;;;;5.07;1.98;;;-5.00;95.70;;;;;;6150252;23;20009;-82
2021/12/26 08:38:38;;;;;;;5.18;1.88;;;-5.00;95.70;;;;;;6150458;23;20096;-82
2021/12/26 08:41:04;;;;;;;4.22;1.50;;;-5.00;95.80;;;;;;6125164;23;20041;-82
2021/12/26 08:43:30;;;;;;;5.63;1.63;;;-5.00;95.80;;;;;;6150185;23;20021;-82
2021/12/26 08:45:57;;;;;;;3.85;1.33;;;-5.00;96.00;;;;;;6149274;23;20251;-82
2021/12/26 08:48:24;;;;;;;3.85;1.60;;;-4.90;95.50;;;;;;6125564;23;20010;-82
2021/12/26 08:50:55;;;;;;;3.83;1.52;;;-4.90;95.90;;;;;;6124822;23;20024;-82
2021/12/26 08:53:25;;;;;;;3.15;1.45;;;-4.90;96.00;;;;;;6148350;23;20028;-82
2021/12/26 08:55:51;;;;;;;5.25;2.10;;;-4.80;96.10;;;;;;6123686;23;20347;-82
2021/12/26 08:58:17;;;;;;;3.80;1.80;;;-4.80;96.20;;;;;;6148067;23;20017;-82
2021/12/26 09:00:42;;;;;;;5.75;1.83;;;-4.80;96.40;;;;;;6148969;23;20021;-81
2021/12/26 09:03:08;;;;;;;4.75;1.73;;;-4.80;95.90;;;;;;6149785;23;20238;-82
2021/12/26 09:05:34;;;;;;;5.63;1.85;;;-4.70;95.80;;;;;;6077719;23;20145;-82
2021/12/26 09:08:02;;;;;;;4.72;2.08;;;-4.70;96.00;;;;;;6137614;23;20917;-82
2021/12/26 09:10:28;;;;;;;5.35;2.20;;;-4.60;95.80;;;;;;6148207;23;20076;-82
2021/12/26 09:12:54;;;;;;;4.00;1.55;;;-4.60;95.80;;;;;;6150387;23;20024;-82
2021/12/26 09:15:21;;;;;;;3.90;1.55;;;-4.50;95.60;;;;;;6150688;23;20010;-82
2021/12/26 09:17:48;;;;;;;5.82;1.80;;;-4.50;94.90;;;;;;6151261;23;20493;-82
2021/12/26 09:20:14;;;;;;;6.70;1.67;;;-4.40;95.30;;;;;;6152255;23;20348;-83
2021/12/26 09:22:42;;;;;;;5.57;1.90;;;-4.40;95.00;;;;;;6124817;23;20021;-83
2021/12/26 09:25:10;;;;;;;4.30;1.75;;;-4.40;95.10;;;;;;6124345;23;20013;-83
2021/12/26 09:27:36;;;;;;;3.67;1.50;;;-4.30;95.00;;;;;;6148521;23;20329;-83
2021/12/26 09:30:06;;;;;;;7.00;1.65;;;-4.30;94.80;;;;;;6125849;23;20021;-83
2021/12/26 09:32:31;;;;;;;3.50;1.52;;;-4.20;94.60;;;;;;6125800;23;20113;-83
2021/12/26 09:34:57;;;;;;;5.10;1.98;;;-4.10;94.70;;;;;;6148405;23;20060;-83
2021/12/26 09:37:23;;;;;;;4.15;1.85;;;-4.00;95.00;;;;;;6149654;23;20010;-83
2021/12/26 09:39:48;;;;;;;4.57;1.73;;;-4.00;93.60;;;;;;6124518;23;20404;-83
2021/12/26 09:42:14;;;;;;;3.63;1.45;;;-3.90;93.60;;;;;;6125644;23;20060;-83
2021/12/26 09:44:41;;;;;;;5.03;1.70;;;-3.90;94.00;;;;;;6071640;23;20032;-83
2021/12/26 09:47:08;;;;;;;5.40;2.50;;;-3.90;94.20;;;;;;6117261;23;22113;-83
2021/12/26 09:49:34;;;;;;;4.43;1.92;;;-3.80;94.30;;;;;;6124160;23;20100;-83
2021/12/26 09:52:00;;;;;;;5.68;2.25;;;-3.80;94.20;;;;;;6149027;23;20053;-83
2021/12/26 09:54:26;;;;;;;3.42;1.85;;;-3.70;94.20;;;;;;6146653;23;20017;-83
2021/12/26 09:56:52;;;;;;;4.07;1.90;;;-3.70;94.20;;;;;;6127088;23;20104;-83
2021/12/26 09:59:23;;;;;;;4.30;1.77;;;-3.70;93.70;;;;;;6150361;23;20006;-83
2021/12/26 10:01:52;;;;;;;5.50;2.05;;;-3.60;94.30;;;;;;6128143;23;20646;-83
2021/12/26 10:04:19;;;;;;;5.20;1.73;;;-3.60;94.50;;;;;;6126248;23;20009;-83
2021/12/26 10:06:47;;;;;;;5.22;1.73;;;-3.50;94.20;;;;;;6151112;23;20348;-83
2021/12/26 10:09:13;;;;;;;5.05;1.70;;;-3.40;94.30;;;;;;6149768;23;20017;-83
2021/12/26 10:11:42;;;;;;;4.15;1.73;;;-3.20;94.50;;;;;;6126696;23;20507;-83
2021/12/26 10:14:19;;;;;;;4.85;2.08;;;-3.10;94.00;;;;;;6149225;23;20017;-83
2021/12/26 10:16:51;;;;;;;5.35;2.15;;;-3.00;93.20;;;;;;6150196;23;20005;-83
2021/12/26 10:19:17;;;;;;;7.45;1.77;;;-2.90;93.10;;;;;;6125784;23;20451;-83
2021/12/26 10:21:45;;;;;;;4.63;1.88;;;-2.90;92.90;;;;;;6126916;23;20013;-83
2021/12/26 10:24:16;;;;;;;6.00;2.20;;;-2.80;92.30;;;;;;6125902;23;20229;-83
2021/12/26 10:26:46;;;;;;;4.65;1.70;;;-2.70;92.90;;;;;;6126657;23;20025;-83
2021/12/26 10:29:19;;;;;;;4.22;1.65;;;-2.70;93.00;;;;;;6126393;23;20363;-83
2021/12/26 10:31:58;;;;;;;3.95;1.77;;;-2.60;92.70;;;;;;6151861;23;20391;-83
2021/12/26 10:34:27;;;;;;;5.50;1.83;;;-2.60;92.80;;;;;;6127504;23;20013;-83
2021/12/26 10:36:54;;;;;;;6.03;2.35;;;-2.60;92.70;;;;;;6125752;23;20014;-83
2021/12/26 10:39:27;;;;;;;3.92;1.92;;;-2.50;92.80;;;;;;6150179;23;20432;-83
2021/12/26 10:41:59;;;;;;;3.58;1.60;;;-2.40;92.20;;;;;;6150444;23;20141;-84
2021/12/26 10:44:50;;;;;;;4.38;2.17;;;-2.10;90.80;;;;;;6147122;23;20029;-83
2021/12/26 10:47:22;;;;;;;3.90;1.98;;;-1.40;88.10;;;;;;6123800;23;20472;-82
2021/12/26 10:50:02;;;;;;;5.38;1.95;;;-0.70;83.90;;;;;;6146601;23;20089;-83
2021/12/26 10:52:51;;;;;;;5.30;1.83;;;0.00;79.70;;;;;;6150839;23;20014;-83
2021/12/26 10:55:20;;;;;;;5.90;1.88;;;0.40;76.40;;;;;;6126450;23;20302;-83
2021/12/26 10:57:51;;;;;;;3.67;1.55;;;0.80;74.30;;;;;;6152111;23;20010;-83
2021/12/26 11:00:24;;;;;;;4.57;1.85;;;1.10;73.00;;;;;;6150013;23;20404;-83
2021/12/26 11:03:09;;;;;;;;;;;1.20;71.30;;;;;;6127442;23;20049;-83
2021/12/26 11:05:44;;;;;;;6.97;2.30;;;1.50;71.10;;;;;;6150364;23;19912;-83
2021/12/26 11:08:28;;;;;;;5.43;2.20;;;1.80;70.10;;;;;;6150902;23;20064;-83
2021/12/26 11:10:55;;;;;;;3.67;1.73;;;1.90;68.90;;;;;;6151074;23;20020;-83
2021/12/26 11:13:23;;;;;;;4.05;1.80;;;2.10;69.40;;;;;;6150824;23;20013;-83
2021/12/26 11:15:53;;;;;;;4.82;1.80;;;2.10;68.30;;;;;;6151020;23;20052;-83
2021/12/26 11:18:19;;;;;;;5.65;1.80;;;2.30;68.30;;;;;;6127103;23;20340;-83
2021/12/26 11:20:54;;;;;;;4.97;2.00;;;2.30;68.10;;;;;;6151804;23;20018;-83
2021/12/26 11:23:23;;;;;;;4.72;1.92;;;2.30;68.10;;;;;;6127394;23;20452;-83
2021/12/26 11:26:10;;;;;;;6.30;2.17;;;2.40;67.80;;;;;;6125814;23;20020;-83
2021/12/26 11:28:47;;;;;;;4.35;1.77;;;2.50;67.50;;;;;;6151564;23;20049;-83
2021/12/26 11:31:27;;;;;;;8.27;2.20;;;2.70;69.40;;;;;;6153090;23;20352;-84
2021/12/26 11:33:59;;;;;;;6.05;2.25;;;3.00;67.50;;;;;;6152446;23;20469;-83
2021/12/26 11:36:27;;;;;;;6.00;2.28;;;3.00;67.90;;;;;;6152689;23;20021;-84
2021/12/26 11:38:55;;;;;;;7.35;1.95;;;3.10;67.10;;;;;;6127246;23;20020;-84
2021/12/26 11:41:45;;;;;;;4.63;2.08;;;3.30;67.50;;;;;;6127484;23;20021;-83
2021/12/26 11:44:29;;;;;;;5.25;2.30;;;3.50;66.70;;;;;;6152313;23;20029;-83
2021/12/26 11:47:16;;;;;;;5.38;2.03;;;3.80;65.70;;;;;;6149668;23;20017;-83
2021/12/26 11:50:04;;;;;;;5.60;2.17;;;3.70;65.80;;;;;;6123269;23;20060;-85
2021/12/26 11:53:00;;;;;;;4.50;2.40;;;3.60;64.40;;;;;;6142254;23;20132;-84
2021/12/26 11:55:41;;;;;;;5.13;2.30;;;3.80;65.70;;;;;;6122694;23;20016;-84
2021/12/26 11:58:35;;;;;;;5.72;2.70;;;4.10;65.40;;;;;;6149109;23;20109;-84
2021/12/26 12:01:02;;;;;;;4.80;2.30;;;4.20;65.50;;;;;;6148530;23;20014;-84
2021/12/26 12:03:31;;;;;;;5.60;2.70;;;4.40;64.50;;;;;;6148263;23;20025;-84
2021/12/26 12:05:57;;;;;;;5.78;2.90;;;4.50;64.80;;;;;;6148259;23;20381;-84
2021/12/26 12:08:23;;;;;;;8.18;4.25;;;4.60;64.10;;;;;;6122457;23;20770;-85
2021/12/26 12:10:55;;;;;;;4.75;2.30;;;4.80;64.70;;;;;;6147195;23;20013;-85
2021/12/26 12:13:26;;;;;;;5.90;2.80;;;5.00;63.70;;;;;;6148448;23;20032;-85
2021/12/26 12:15:57;;;;;;;5.28;2.53;;;5.20;63.80;;;;;;6149698;23;20077;-85
2021/12/26 12:18:33;;;;;;;4.90;2.40;;;5.30;63.20;;;;;;6149253;23;20009;-85
2021/12/26 12:21:16;;;;;;;7.35;2.83;;;5.40;63.80;;;;;;6148865;23;20032;-85
2021/12/26 12:24:16;;;;;;;5.10;2.53;;;5.50;62.60;;;;;;6124478;23;20384;-85
2021/12/26 12:26:53;;;;;;;5.35;2.67;;;5.70;61.20;;;;;;6127021;23;20040;-85
2021/12/26 12:29:25;;;;;;;5.85;2.50;;;5.70;61.80;;;;;;6124159;23;20017;-85
2021/12/26 12:32:09;;;;;;;6.45;2.53;;;6.00;62.20;;;;;;6149036;23;20017;-85
2021/12/26 12:34:49;;;;;;;5.50;2.83;;;6.20;61.80;;;;;;6125038;23;20021;-85
2021/12/26 12:37:42;;;;;;;4.38;2.63;;;6.10;60.80;;;;;;6126393;23;20006;-85
2021/12/26 12:40:13;;;;;;;5.35;2.70;;;5.90;61.50;;;;;;6147783;23;20069;-85
2021/12/26 12:42:42;;;;;;;4.63;2.50;;;6.00;62.30;;;;;;6124943;23;20294;-85
2021/12/26 12:45:09;;;;;;;5.18;2.47;;;5.90;61.60;;;;;;6123182;23;20021;-85
2021/12/26 12:47:34;;;;;;;4.57;2.08;;;6.10;61.30;;;;;;6123569;23;20029;-85
2021/12/26 12:50:03;;;;;;;5.22;2.63;;;6.30;61.60;;;;;;6123856;23;20340;-85
2021/12/26 12:52:41;;;;;;;4.78;2.60;;;6.30;60.40;;;;;;6149277;23;20348;-86